Ripley, California
Current Conditions -  °F | °C
As of 9:52 PM on Friday 28 Nov 2014 (Local Time) from KBLH Reporting Station
Clear Clear  
Wind Chill: 56°   Ceiling: Unl
Heat Index: 56°   Visibility: 10mi
Dew Point: 22°   Wind: 6mph
Humidity: 27%   Direction: 340°NNW
Pressure: 29.88"   Gusts: NA
Location:  33.5664°N, 114.628°W
Report Text: KBLH 290552Z AUTO 34005KT 10SM CLR 13/M06 A2988 RMK AO2 SLP115 T01331056 10244 20128 $
Loading
Personal Weather Stations






























Interactive Weather Map New forecast layout! Learn more

10-Day Weather Forecast

Advertisements
Track Severe Weather on mobile